sensor_id;sensor_type;location;lat;lon;timestamp;P1;durP1;ratioP1;P2;durP2;ratioP2
60257;SDS011;46115;44.484;11.314;2024-03-02T00:03:24;2.97;;;0.88;;
60257;SDS011;46115;44.484;11.314;2024-03-02T00:07:26;3.17;;;1.10;;
60257;SDS011;46115;44.484;11.314;2024-03-02T00:11:31;3.47;;;1.30;;
60257;SDS011;46115;44.484;11.314;2024-03-02T00:15:40;1.98;;;1.00;;
60257;SDS011;46115;44.484;11.314;2024-03-02T00:19:44;3.83;;;1.10;;
60257;SDS011;46115;44.484;11.314;2024-03-02T00:23:47;2.00;;;1.10;;
60257;SDS011;46115;44.484;11.314;2024-03-02T00:27:52;4.28;;;1.05;;
60257;SDS011;46115;44.484;11.314;2024-03-02T00:31:54;1.77;;;0.80;;
60257;SDS011;46115;44.484;11.314;2024-03-02T00:35:58;2.10;;;1.25;;
60257;SDS011;46115;44.484;11.314;2024-03-02T00:40:01;5.22;;;0.93;;
60257;SDS011;46115;44.484;11.314;2024-03-02T00:44:06;1.85;;;1.00;;
60257;SDS011;46115;44.484;11.314;2024-03-02T00:48:12;1.20;;;0.90;;
60257;SDS011;46115;44.484;11.314;2024-03-02T00:52:17;2.38;;;0.80;;
60257;SDS011;46115;44.484;11.314;2024-03-02T00:56:20;0.88;;;0.60;;
60257;SDS011;46115;44.484;11.314;2024-03-02T01:00:24;2.58;;;0.93;;
60257;SDS011;46115;44.484;11.314;2024-03-02T01:04:26;4.65;;;0.88;;
60257;SDS011;46115;44.484;11.314;2024-03-02T01:08:29;3.90;;;0.95;;
60257;SDS011;46115;44.484;11.314;2024-03-02T01:12:31;1.70;;;0.75;;
60257;SDS011;46115;44.484;11.314;2024-03-02T01:16:35;1.30;;;0.80;;
60257;SDS011;46115;44.484;11.314;2024-03-02T01:20:38;1.45;;;0.70;;
60257;SDS011;46115;44.484;11.314;2024-03-02T01:24:40;1.70;;;1.00;;
60257;SDS011;46115;44.484;11.314;2024-03-02T01:28:43;2.60;;;1.17;;
60257;SDS011;46115;44.484;11.314;2024-03-02T01:32:46;1.55;;;1.00;;
60257;SDS011;46115;44.484;11.314;2024-03-02T01:36:49;3.33;;;1.30;;
60257;SDS011;46115;44.484;11.314;2024-03-02T01:40:51;1.65;;;1.00;;
60257;SDS011;46115;44.484;11.314;2024-03-02T01:44:55;3.75;;;1.35;;
60257;SDS011;46115;44.484;11.314;2024-03-02T01:48:59;2.45;;;1.35;;
60257;SDS011;46115;44.484;11.314;2024-03-02T01:53:02;3.60;;;1.50;;
60257;SDS011;46115;44.484;11.314;2024-03-02T01:57:05;1.92;;;1.00;;
60257;SDS011;46115;44.484;11.314;2024-03-02T02:01:08;2.22;;;0.85;;
60257;SDS011;46115;44.484;11.314;2024-03-02T02:05:12;1.42;;;0.75;;
60257;SDS011;46115;44.484;11.314;2024-03-02T02:09:15;1.60;;;0.88;;
60257;SDS011;46115;44.484;11.314;2024-03-02T02:13:19;4.57;;;1.48;;
60257;SDS011;46115;44.484;11.314;2024-03-02T02:17:21;3.67;;;1.10;;
60257;SDS011;46115;44.484;11.314;2024-03-02T02:21:25;1.52;;;1.08;;
60257;SDS011;46115;44.484;11.314;2024-03-02T02:25:28;2.75;;;1.10;;
60257;SDS011;46115;44.484;11.314;2024-03-02T02:29:31;2.83;;;1.00;;
60257;SDS011;46115;44.484;11.314;2024-03-02T02:33:33;2.60;;;1.50;;
60257;SDS011;46115;44.484;11.314;2024-03-02T02:37:37;1.40;;;0.80;;
60257;SDS011;46115;44.484;11.314;2024-03-02T02:41:40;3.03;;;1.10;;
60257;SDS011;46115;44.484;11.314;2024-03-02T02:45:43;3.53;;;2.25;;
60257;SDS011;46115;44.484;11.314;2024-03-02T02:49:46;3.45;;;1.20;;
60257;SDS011;46115;44.484;11.314;2024-03-02T02:53:50;2.72;;;1.15;;
60257;SDS011;46115;44.484;11.314;2024-03-02T02:57:53;4.90;;;1.50;;
60257;SDS011;46115;44.484;11.314;2024-03-02T03:01:55;2.85;;;1.20;;
60257;SDS011;46115;44.484;11.314;2024-03-02T03:05:58;3.92;;;1.40;;
60257;SDS011;46115;44.484;11.314;2024-03-02T03:10:02;2.45;;;1.58;;
60257;SDS011;46115;44.484;11.314;2024-03-02T03:14:05;3.20;;;1.70;;
60257;SDS011;46115;44.484;11.314;2024-03-02T03:18:07;4.82;;;1.50;;
60257;SDS011;46115;44.484;11.314;2024-03-02T03:22:11;4.07;;;1.20;;
60257;SDS011;46115;44.484;11.314;2024-03-02T03:26:15;1.67;;;1.05;;
60257;SDS011;46115;44.484;11.314;2024-03-02T03:30:18;3.17;;;1.35;;
60257;SDS011;46115;44.484;11.314;2024-03-02T03:34:20;2.60;;;1.20;;
60257;SDS011;46115;44.484;11.314;2024-03-02T03:38:23;2.13;;;0.82;;
60257;SDS011;46115;44.484;11.314;2024-03-02T03:42:26;1.20;;;0.90;;
60257;SDS011;46115;44.484;11.314;2024-03-02T03:46:29;1.67;;;0.80;;
60257;SDS011;46115;44.484;11.314;2024-03-02T03:50:32;2.17;;;0.80;;
60257;SDS011;46115;44.484;11.314;2024-03-02T03:54:34;1.95;;;0.85;;
60257;SDS011;46115;44.484;11.314;2024-03-02T03:58:39;2.85;;;0.85;;
60257;SDS011;46115;44.484;11.314;2024-03-02T04:02:42;1.48;;;0.95;;
60257;SDS011;46115;44.484;11.314;2024-03-02T04:06:44;2.42;;;0.80;;
60257;SDS011;46115;44.484;11.314;2024-03-02T04:10:47;1.27;;;0.90;;
60257;SDS011;46115;44.484;11.314;2024-03-02T04:14:51;1.70;;;0.95;;
60257;SDS011;46115;44.484;11.314;2024-03-02T04:18:53;1.45;;;0.90;;
60257;SDS011;46115;44.484;11.314;2024-03-02T04:22:56;1.73;;;0.88;;
60257;SDS011;46115;44.484;11.314;2024-03-02T04:26:59;2.25;;;1.17;;
60257;SDS011;46115;44.484;11.314;2024-03-02T04:31:02;3.05;;;1.20;;
60257;SDS011;46115;44.484;11.314;2024-03-02T04:35:06;2.67;;;1.35;;
60257;SDS011;46115;44.484;11.314;2024-03-02T04:39:10;1.90;;;1.30;;
60257;SDS011;46115;44.484;11.314;2024-03-02T04:43:13;1.20;;;1.00;;
60257;SDS011;46115;44.484;11.314;2024-03-02T04:47:18;2.40;;;1.10;;
60257;SDS011;46115;44.484;11.314;2024-03-02T04:51:21;2.10;;;1.00;;
60257;SDS011;46115;44.484;11.314;2024-03-02T04:55:23;1.20;;;0.80;;
60257;SDS011;46115;44.484;11.314;2024-03-02T04:59:51;2.03;;;0.80;;
60257;SDS011;46115;44.484;11.314;2024-03-02T05:03:55;2.25;;;0.82;;
60257;SDS011;46115;44.484;11.314;2024-03-02T05:07:58;1.02;;;0.70;;
60257;SDS011;46115;44.484;11.314;2024-03-02T05:12:00;3.30;;;0.85;;
60257;SDS011;46115;44.484;11.314;2024-03-02T05:16:32;1.50;;;0.80;;
60257;SDS011;46115;44.484;11.314;2024-03-02T05:20:36;2.17;;;0.90;;
60257;SDS011;46115;44.484;11.314;2024-03-02T05:24:39;1.10;;;0.73;;
60257;SDS011;46115;44.484;11.314;2024-03-02T05:28:41;2.65;;;0.88;;
60257;SDS011;46115;44.484;11.314;2024-03-02T05:32:44;3.25;;;0.90;;
60257;SDS011;46115;44.484;11.314;2024-03-02T05:36:48;3.85;;;0.70;;
60257;SDS011;46115;44.484;11.314;2024-03-02T05:40:50;1.45;;;1.10;;
60257;SDS011;46115;44.484;11.314;2024-03-02T05:44:52;1.73;;;0.70;;
60257;SDS011;46115;44.484;11.314;2024-03-02T05:48:55;4.82;;;0.95;;
60257;SDS011;46115;44.484;11.314;2024-03-02T05:52:59;3.28;;;1.27;;
60257;SDS011;46115;44.484;11.314;2024-03-02T05:57:01;2.22;;;0.90;;
60257;SDS011;46115;44.484;11.314;2024-03-02T06:01:17;4.22;;;1.40;;
60257;SDS011;46115;44.484;11.314;2024-03-02T06:05:20;2.97;;;0.90;;
60257;SDS011;46115;44.484;11.314;2024-03-02T06:09:24;3.03;;;1.30;;
60257;SDS011;46115;44.484;11.314;2024-03-02T06:13:27;2.45;;;1.30;;
60257;SDS011;46115;44.484;11.314;2024-03-02T06:17:29;2.05;;;1.10;;
60257;SDS011;46115;44.484;11.314;2024-03-02T06:21:32;2.65;;;1.20;;
60257;SDS011;46115;44.484;11.314;2024-03-02T06:25:36;4.43;;;1.08;;
60257;SDS011;46115;44.484;11.314;2024-03-02T06:29:38;4.25;;;1.00;;
60257;SDS011;46115;44.484;11.314;2024-03-02T06:33:41;2.25;;;1.00;;
60257;SDS011;46115;44.484;11.314;2024-03-02T06:37:43;3.38;;;1.20;;
60257;SDS011;46115;44.484;11.314;2024-03-02T06:41:47;2.85;;;1.02;;
60257;SDS011;46115;44.484;11.314;2024-03-02T06:45:49;1.80;;;0.90;;
60257;SDS011;46115;44.484;11.314;2024-03-02T06:49:52;1.80;;;0.90;;
60257;SDS011;46115;44.484;11.314;2024-03-02T06:53:55;2.60;;;0.93;;
60257;SDS011;46115;44.484;11.314;2024-03-02T06:57:58;2.08;;;1.00;;
60257;SDS011;46115;44.484;11.314;2024-03-02T07:02:01;1.13;;;0.90;;
60257;SDS011;46115;44.484;11.314;2024-03-02T07:06:03;4.63;;;1.60;;
60257;SDS011;46115;44.484;11.314;2024-03-02T07:10:06;1.13;;;0.90;;
60257;SDS011;46115;44.484;11.314;2024-03-02T07:14:10;3.80;;;0.90;;
60257;SDS011;46115;44.484;11.314;2024-03-02T07:18:13;2.15;;;0.80;;
60257;SDS011;46115;44.484;11.314;2024-03-02T07:22:15;1.95;;;0.80;;
60257;SDS011;46115;44.484;11.314;2024-03-02T07:26:18;2.60;;;0.80;;
60257;SDS011;46115;44.484;11.314;2024-03-02T07:30:23;2.38;;;0.80;;
60257;SDS011;46115;44.484;11.314;2024-03-02T07:34:25;2.22;;;1.00;;
60257;SDS011;46115;44.484;11.314;2024-03-02T07:38:28;2.08;;;1.20;;
60257;SDS011;46115;44.484;11.314;2024-03-02T07:42:30;1.95;;;1.15;;
60257;SDS011;46115;44.484;11.314;2024-03-02T07:46:34;1.50;;;1.00;;
60257;SDS011;46115;44.484;11.314;2024-03-02T07:50:36;3.00;;;1.10;;
60257;SDS011;46115;44.484;11.314;2024-03-02T07:54:39;1.35;;;0.82;;
60257;SDS011;46115;44.484;11.314;2024-03-02T07:58:42;3.65;;;0.95;;
60257;SDS011;46115;44.484;11.314;2024-03-02T08:02:48;1.92;;;0.80;;
60257;SDS011;46115;44.484;11.314;2024-03-02T08:06:51;2.28;;;0.90;;
60257;SDS011;46115;44.484;11.314;2024-03-02T08:10:55;2.55;;;1.00;;
60257;SDS011;46115;44.484;11.314;2024-03-02T08:14:57;1.95;;;1.10;;
60257;SDS011;46115;44.484;11.314;2024-03-02T08:19:01;2.75;;;1.00;;
60257;SDS011;46115;44.484;11.314;2024-03-02T08:23:04;2.30;;;1.10;;
60257;SDS011;46115;44.484;11.314;2024-03-02T08:27:07;1.45;;;1.00;;
60257;SDS011;46115;44.484;11.314;2024-03-02T08:31:10;1.42;;;1.00;;
60257;SDS011;46115;44.484;11.314;2024-03-02T08:35:14;2.42;;;1.10;;
60257;SDS011;46115;44.484;11.314;2024-03-02T08:39:16;2.53;;;1.10;;
60257;SDS011;46115;44.484;11.314;2024-03-02T08:43:20;2.17;;;1.13;;
60257;SDS011;46115;44.484;11.314;2024-03-02T08:47:23;4.60;;;1.35;;
60257;SDS011;46115;44.484;11.314;2024-03-02T08:51:27;2.63;;;1.10;;
60257;SDS011;46115;44.484;11.314;2024-03-02T08:55:29;2.42;;;1.05;;
60257;SDS011;46115;44.484;11.314;2024-03-02T08:59:32;2.30;;;1.45;;
60257;SDS011;46115;44.484;11.314;2024-03-02T09:03:34;4.03;;;2.08;;
60257;SDS011;46115;44.484;11.314;2024-03-02T09:07:39;2.53;;;2.00;;
60257;SDS011;46115;44.484;11.314;2024-03-02T09:11:42;2.65;;;2.10;;
60257;SDS011;46115;44.484;11.314;2024-03-02T09:15:44;3.53;;;2.40;;
60257;SDS011;46115;44.484;11.314;2024-03-02T09:19:47;2.85;;;2.55;;
60257;SDS011;46115;44.484;11.314;2024-03-02T09:23:50;3.55;;;2.70;;
60257;SDS011;46115;44.484;11.314;2024-03-02T09:27:53;6.63;;;3.83;;
60257;SDS011;46115;44.484;11.314;2024-03-02T09:31:55;7.80;;;7.00;;
60257;SDS011;46115;44.484;11.314;2024-03-02T09:35:58;12.38;;;10.13;;
60257;SDS011;46115;44.484;11.314;2024-03-02T09:40:02;11.68;;;10.35;;
60257;SDS011;46115;44.484;11.314;2024-03-02T09:44:05;12.50;;;11.23;;
60257;SDS011;46115;44.484;11.314;2024-03-02T09:48:07;10.95;;;9.65;;
60257;SDS011;46115;44.484;11.314;2024-03-02T09:52:10;10.15;;;8.65;;
60257;SDS011;46115;44.484;11.314;2024-03-02T09:56:14;9.30;;;8.10;;
60257;SDS011;46115;44.484;11.314;2024-03-02T10:00:19;11.85;;;10.38;;
60257;SDS011;46115;44.484;11.314;2024-03-02T10:04:21;12.65;;;9.38;;
60257;SDS011;46115;44.484;11.314;2024-03-02T10:08:24;10.45;;;9.38;;
60257;SDS011;46115;44.484;11.314;2024-03-02T10:12:28;11.32;;;10.23;;
60257;SDS011;46115;44.484;11.314;2024-03-02T10:16:30;11.32;;;10.20;;
60257;SDS011;46115;44.484;11.314;2024-03-02T10:20:33;11.80;;;10.60;;
60257;SDS011;46115;44.484;11.314;2024-03-02T10:24:36;12.75;;;11.45;;
60257;SDS011;46115;44.484;11.314;2024-03-02T10:28:43;9.27;;;8.43;;
60257;SDS011;46115;44.484;11.314;2024-03-02T10:32:48;10.48;;;9.48;;
60257;SDS011;46115;44.484;11.314;2024-03-02T10:36:51;10.20;;;9.18;;
60257;SDS011;46115;44.484;11.314;2024-03-02T10:40:53;10.10;;;9.07;;
60257;SDS011;46115;44.484;11.314;2024-03-02T10:45:00;9.43;;;8.52;;
60257;SDS011;46115;44.484;11.314;2024-03-02T10:49:04;9.65;;;8.65;;
60257;SDS011;46115;44.484;11.314;2024-03-02T10:53:07;8.73;;;7.88;;
60257;SDS011;46115;44.484;11.314;2024-03-02T10:57:09;8.57;;;7.75;;
60257;SDS011;46115;44.484;11.314;2024-03-02T11:01:17;9.48;;;8.10;;
60257;SDS011;46115;44.484;11.314;2024-03-02T11:05:24;9.55;;;8.63;;
60257;SDS011;46115;44.484;11.314;2024-03-02T11:09:31;8.57;;;7.78;;
60257;SDS011;46115;44.484;11.314;2024-03-02T11:13:35;10.70;;;9.57;;
60257;SDS011;46115;44.484;11.314;2024-03-02T11:17:41;9.02;;;8.13;;
60257;SDS011;46115;44.484;11.314;2024-03-02T11:21:45;9.90;;;8.65;;
60257;SDS011;46115;44.484;11.314;2024-03-02T11:25:48;10.10;;;9.20;;
60257;SDS011;46115;44.484;11.314;2024-03-02T11:29:51;8.65;;;7.68;;
60257;SDS011;46115;44.484;11.314;2024-03-02T11:33:55;7.72;;;7.03;;
60257;SDS011;46115;44.484;11.314;2024-03-02T11:37:57;8.05;;;7.25;;
60257;SDS011;46115;44.484;11.314;2024-03-02T11:42:00;9.10;;;7.07;;
60257;SDS011;46115;44.484;11.314;2024-03-02T11:46:04;7.03;;;6.35;;
60257;SDS011;46115;44.484;11.314;2024-03-02T11:50:10;7.80;;;7.00;;
60257;SDS011;46115;44.484;11.314;2024-03-02T11:54:12;7.07;;;6.43;;
60257;SDS011;46115;44.484;11.314;2024-03-02T11:58:15;6.28;;;5.70;;
60257;SDS011;46115;44.484;11.314;2024-03-02T12:02:21;7.07;;;5.60;;
60257;SDS011;46115;44.484;11.314;2024-03-02T12:06:25;6.75;;;5.80;;
60257;SDS011;46115;44.484;11.314;2024-03-02T12:10:29;6.00;;;5.40;;
60257;SDS011;46115;44.484;11.314;2024-03-02T12:14:32;5.03;;;4.53;;
60257;SDS011;46115;44.484;11.314;2024-03-02T12:18:35;5.80;;;4.82;;
60257;SDS011;46115;44.484;11.314;2024-03-02T12:22:39;4.93;;;4.43;;
60257;SDS011;46115;44.484;11.314;2024-03-02T12:26:42;4.90;;;4.50;;
60257;SDS011;46115;44.484;11.314;2024-03-02T12:30:45;6.63;;;4.57;;
60257;SDS011;46115;44.484;11.314;2024-03-02T12:34:48;7.40;;;4.35;;
60257;SDS011;46115;44.484;11.314;2024-03-02T12:38:55;4.88;;;3.83;;
60257;SDS011;46115;44.484;11.314;2024-03-02T12:42:57;3.95;;;3.55;;
60257;SDS011;46115;44.484;11.314;2024-03-02T12:47:00;3.90;;;3.50;;
60257;SDS011;46115;44.484;11.314;2024-03-02T12:51:03;3.97;;;3.58;;
60257;SDS011;46115;44.484;11.314;2024-03-02T12:55:07;4.38;;;3.40;;
60257;SDS011;46115;44.484;11.314;2024-03-02T12:59:17;4.00;;;3.33;;
60257;SDS011;46115;44.484;11.314;2024-03-02T13:03:20;4.63;;;2.92;;
60257;SDS011;46115;44.484;11.314;2024-03-02T13:07:24;3.20;;;2.70;;
60257;SDS011;46115;44.484;11.314;2024-03-02T13:11:29;3.17;;;2.88;;
60257;SDS011;46115;44.484;11.314;2024-03-02T13:15:32;3.15;;;2.70;;
60257;SDS011;46115;44.484;11.314;2024-03-02T13:19:35;3.00;;;2.70;;
60257;SDS011;46115;44.484;11.314;2024-03-02T13:23:38;2.83;;;2.20;;
60257;SDS011;46115;44.484;11.314;2024-03-02T13:27:41;3.92;;;2.55;;
60257;SDS011;46115;44.484;11.314;2024-03-02T13:31:44;3.42;;;2.50;;
60257;SDS011;46115;44.484;11.314;2024-03-02T13:35:46;4.53;;;2.40;;
60257;SDS011;46115;44.484;11.314;2024-03-02T13:39:49;3.78;;;2.50;;
60257;SDS011;46115;44.484;11.314;2024-03-02T13:43:52;3.35;;;2.60;;
60257;SDS011;46115;44.484;11.314;2024-03-02T13:47:55;2.33;;;2.05;;
60257;SDS011;46115;44.484;11.314;2024-03-02T13:51:58;3.50;;;2.40;;
60257;SDS011;46115;44.484;11.314;2024-03-02T13:56:01;3.55;;;2.38;;
60257;SDS011;46115;44.484;11.314;2024-03-02T14:00:07;4.05;;;2.53;;
60257;SDS011;46115;44.484;11.314;2024-03-02T14:04:12;3.00;;;2.30;;
60257;SDS011;46115;44.484;11.314;2024-03-02T14:08:15;2.53;;;2.13;;
60257;SDS011;46115;44.484;11.314;2024-03-02T14:12:18;2.53;;;2.33;;
60257;SDS011;46115;44.484;11.314;2024-03-02T14:16:22;2.00;;;1.80;;
60257;SDS011;46115;44.484;11.314;2024-03-02T14:20:25;7.63;;;1.90;;
60257;SDS011;46115;44.484;11.314;2024-03-02T14:24:27;2.80;;;1.83;;
60257;SDS011;46115;44.484;11.314;2024-03-02T14:28:30;2.45;;;1.80;;
60257;SDS011;46115;44.484;11.314;2024-03-02T14:32:33;2.55;;;1.70;;
60257;SDS011;46115;44.484;11.314;2024-03-02T14:36:36;2.80;;;1.88;;
60257;SDS011;46115;44.484;11.314;2024-03-02T14:40:38;2.42;;;2.22;;
60257;SDS011;46115;44.484;11.314;2024-03-02T14:44:41;3.05;;;2.50;;
60257;SDS011;46115;44.484;11.314;2024-03-02T14:48:45;7.18;;;2.63;;
60257;SDS011;46115;44.484;11.314;2024-03-02T14:52:48;3.85;;;3.00;;
60257;SDS011;46115;44.484;11.314;2024-03-02T14:56:50;3.63;;;3.00;;
60257;SDS011;46115;44.484;11.314;2024-03-02T15:00:53;3.45;;;2.83;;
60257;SDS011;46115;44.484;11.314;2024-03-02T15:04:57;3.28;;;2.80;;
60257;SDS011;46115;44.484;11.314;2024-03-02T15:08:59;4.13;;;3.20;;
60257;SDS011;46115;44.484;11.314;2024-03-02T15:13:03;3.60;;;2.92;;
60257;SDS011;46115;44.484;11.314;2024-03-02T15:17:06;3.92;;;3.50;;
60257;SDS011;46115;44.484;11.314;2024-03-02T15:21:10;4.28;;;3.20;;
60257;SDS011;46115;44.484;11.314;2024-03-02T15:25:12;3.70;;;3.40;;
60257;SDS011;46115;44.484;11.314;2024-03-02T15:29:16;3.72;;;3.33;;
60257;SDS011;46115;44.484;11.314;2024-03-02T15:33:20;4.85;;;3.33;;
60257;SDS011;46115;44.484;11.314;2024-03-02T15:37:27;3.40;;;3.10;;
60257;SDS011;46115;44.484;11.314;2024-03-02T15:41:29;5.05;;;3.50;;
60257;SDS011;46115;44.484;11.314;2024-03-02T15:45:32;4.53;;;2.60;;
60257;SDS011;46115;44.484;11.314;2024-03-02T15:49:35;3.00;;;2.70;;
60257;SDS011;46115;44.484;11.314;2024-03-02T15:53:39;3.65;;;2.63;;
60257;SDS011;46115;44.484;11.314;2024-03-02T15:57:41;2.80;;;2.60;;
60257;SDS011;46115;44.484;11.314;2024-03-02T16:01:44;3.00;;;2.60;;
60257;SDS011;46115;44.484;11.314;2024-03-02T16:05:46;2.58;;;2.38;;
60257;SDS011;46115;44.484;11.314;2024-03-02T16:09:50;4.28;;;2.70;;
60257;SDS011;46115;44.484;11.314;2024-03-02T16:13:52;2.55;;;2.35;;
60257;SDS011;46115;44.484;11.314;2024-03-02T16:17:55;3.58;;;2.30;;
60257;SDS011;46115;44.484;11.314;2024-03-02T16:21:59;2.95;;;2.20;;
60257;SDS011;46115;44.484;11.314;2024-03-02T16:26:03;4.20;;;2.00;;
60257;SDS011;46115;44.484;11.314;2024-03-02T16:30:07;2.70;;;2.30;;
60257;SDS011;46115;44.484;11.314;2024-03-02T16:34:10;2.85;;;2.20;;
60257;SDS011;46115;44.484;11.314;2024-03-02T16:38:12;2.50;;;2.30;;
60257;SDS011;46115;44.484;11.314;2024-03-02T16:42:16;3.47;;;2.13;;
60257;SDS011;46115;44.484;11.314;2024-03-02T16:46:20;2.65;;;2.38;;
60257;SDS011;46115;44.484;11.314;2024-03-02T16:50:23;5.10;;;2.70;;
60257;SDS011;46115;44.484;11.314;2024-03-02T16:54:25;3.58;;;2.50;;
60257;SDS011;46115;44.484;11.314;2024-03-02T16:58:29;3.10;;;2.80;;
60257;SDS011;46115;44.484;11.314;2024-03-02T17:02:32;3.30;;;2.75;;
60257;SDS011;46115;44.484;11.314;2024-03-02T17:06:34;3.17;;;2.83;;
60257;SDS011;46115;44.484;11.314;2024-03-02T17:10:37;2.97;;;2.58;;
60257;SDS011;46115;44.484;11.314;2024-03-02T17:14:42;2.63;;;2.42;;
60257;SDS011;46115;44.484;11.314;2024-03-02T17:18:45;2.90;;;2.70;;
60257;SDS011;46115;44.484;11.314;2024-03-02T17:22:48;4.55;;;2.50;;
60257;SDS011;46115;44.484;11.314;2024-03-02T17:26:50;3.03;;;2.72;;
60257;SDS011;46115;44.484;11.314;2024-03-02T17:30:54;4.28;;;2.88;;
60257;SDS011;46115;44.484;11.314;2024-03-02T17:34:57;3.70;;;3.30;;
60257;SDS011;46115;44.484;11.314;2024-03-02T23:06:08;4.30;;;2.03;;
60257;SDS011;46115;44.484;11.314;2024-03-02T23:10:10;6.13;;;1.80;;
60257;SDS011;46115;44.484;11.314;2024-03-02T23:14:13;7.78;;;1.67;;
60257;SDS011;46115;44.484;11.314;2024-03-02T23:18:15;6.32;;;1.75;;
60257;SDS011;46115;44.484;11.314;2024-03-02T23:22:19;7.50;;;1.60;;
60257;SDS011;46115;44.484;11.314;2024-03-02T23:26:23;4.88;;;1.45;;
60257;SDS011;46115;44.484;11.314;2024-03-02T23:30:26;5.72;;;1.50;;
60257;SDS011;46115;44.484;11.314;2024-03-02T23:34:29;4.90;;;1.70;;
60257;SDS011;46115;44.484;11.314;2024-03-02T23:38:33;7.10;;;1.70;;
60257;SDS011;46115;44.484;11.314;2024-03-02T23:42:36;4.38;;;1.60;;
60257;SDS011;46115;44.484;11.314;2024-03-02T23:46:38;5.15;;;1.80;;
60257;SDS011;46115;44.484;11.314;2024-03-02T23:50:41;3.35;;;1.60;;
60257;SDS011;46115;44.484;11.314;2024-03-02T23:54:45;4.70;;;1.85;;
60257;SDS011;46115;44.484;11.314;2024-03-02T23:58:47;7.38;;;2.05;;
